Time;durP1;ratioP1;P1;durP2;ratioP2;P2;SDS_P1;SDS_P2;PMS_P1;PMS_P2;Temp;Humidity;BMP_temperature;BMP_pressure;BME280_temperature;BME280_humidity;BME280_pressure;Samples;Min_cycle;Max_cycle;Signal;HPM_P1;HPM_P2
2024/01/04 00:02:00;;;;;;;1.70;1.02;;;;;;;;;;5124829;27;20467;-82
2024/01/04 00:04:26;;;;;;;3.15;0.65;;;;;;;;;;5125970;27;20054;-83
2024/01/04 00:06:52;;;;;;;0.85;0.73;;;;;;;;;;5126261;27;20046;-82
2024/01/04 00:09:18;;;;;;;1.33;0.77;;;;;;;;;;5129859;27;20064;-83
2024/01/04 00:11:44;;;;;;;3.10;0.52;;;;;;;;;;5122703;27;20487;-83
2024/01/04 00:14:10;;;;;;;0.50;0.40;;;;;;;;;;5122038;27;20035;-83
2024/01/04 00:16:36;;;;;;;0.95;0.35;;;;;;;;;;5124880;27;20078;-83
2024/01/04 00:19:03;;;;;;;1.98;0.52;;;;;;;;;;5126698;27;20046;-83
2024/01/04 00:21:29;;;;;;;2.15;0.60;;;;;;;;;;5123917;27;20040;-83
2024/01/04 00:23:55;;;;;;;0.70;0.43;;;;;;;;;;5122518;27;20062;-83
2024/01/04 00:26:21;;;;;;;2.10;0.52;;;;;;;;;;5121045;27;20059;-83
2024/01/04 00:28:47;;;;;;;3.25;0.40;;;;;;;;;;5120337;27;20459;-84
2024/01/04 00:31:13;;;;;;;2.03;1.00;;;;;;;;;;5118567;27;20042;-83
2024/01/04 00:33:39;;;;;;;1.23;0.55;;;;;;;;;;5122597;27;20481;-83
2024/01/04 00:36:06;;;;;;;4.50;0.73;;;;;;;;;;5122187;27;20039;-82
2024/01/04 00:38:32;;;;;;;1.10;0.55;;;;;;;;;;5121202;27;20083;-83
2024/01/04 00:40:58;;;;;;;1.08;0.50;;;;;;;;;;5124614;27;20081;-84
2024/01/04 00:43:24;;;;;;;0.50;0.50;;;;;;;;;;5120105;27;20043;-83
2024/01/04 00:45:50;;;;;;;2.53;0.75;;;;;;;;;;5122861;27;20045;-82
2024/01/04 00:48:16;;;;;;;1.58;0.32;;;;;;;;;;5125181;27;20466;-82
2024/01/04 00:50:42;;;;;;;0.52;0.40;;;;;;;;;;5122645;27;20462;-83
2024/01/04 00:53:09;;;;;;;0.63;0.40;;;;;;;;;;5123642;27;20065;-83
2024/01/04 00:55:37;;;;;;;2.28;0.80;;;;;;;;;;5125205;27;20062;-83
2024/01/04 00:58:07;;;;;;;0.00;0.00;;;;;;;;;;5128942;27;20468;-83
2024/01/04 01:00:33;;;;;;;2.30;0.68;;;;;;;;;;5129197;27;20399;-83
2024/01/04 01:02:59;;;;;;;0.95;0.55;;;;;;;;;;5129251;27;20039;-83
2024/01/04 01:05:25;;;;;;;0.88;0.22;;;;;;;;;;5130156;27;20500;-83
2024/01/04 01:07:51;;;;;;;1.17;0.30;;;;;;;;;;5126983;27;20047;-83
2024/01/04 01:10:17;;;;;;;0.43;0.43;;;;;;;;;;5128913;27;20037;-83
2024/01/04 01:12:43;;;;;;;1.90;0.47;;;;;;;;;;5123033;27;20059;-83
2024/01/04 01:15:09;;;;;;;0.98;0.50;;;;;;;;;;5122380;27;20081;-82
2024/01/04 01:17:35;;;;;;;3.35;0.60;;;;;;;;;;5124426;27;20410;-83
2024/01/04 01:20:02;;;;;;;2.08;0.90;;;;;;;;;;5130783;27;20035;-82
2024/01/04 01:22:30;;;;;;;1.77;0.80;;;;;;;;;;5110375;28;20464;-83
2024/01/04 01:24:56;;;;;;;2.67;0.85;;;;;;;;;;5129927;28;20050;-82
2024/01/04 01:27:22;;;;;;;1.20;0.60;;;;;;;;;;5138359;28;20044;-83
2024/01/04 01:29:48;;;;;;;0.30;0.30;;;;;;;;;;5137735;27;20496;-83
2024/01/04 01:32:15;;;;;;;2.58;1.77;;;;;;;;;;5142200;28;20099;-83
2024/01/04 01:34:44;;;;;;;0.50;0.20;;;;;;;;;;5128765;27;20066;-83
2024/01/04 01:37:11;;;;;;;2.47;1.00;;;;;;;;;;5122370;28;20036;-82
2024/01/04 01:39:37;;;;;;;1.75;0.63;;;;;;;;;;5123791;28;20042;-83
2024/01/04 01:42:03;;;;;;;2.65;0.90;;;;;;;;;;5126676;28;20070;-82
2024/01/04 01:44:29;;;;;;;2.00;0.52;;;;;;;;;;5132967;28;20068;-81
2024/01/04 01:46:56;;;;;;;3.40;0.57;;;;;;;;;;5125715;27;20130;-83
2024/01/04 01:49:22;;;;;;;3.97;0.80;;;;;;;;;;5128114;27;20039;-84
2024/01/04 01:51:48;;;;;;;1.10;0.55;;;;;;;;;;5107639;27;20144;-84
2024/01/04 01:54:14;;;;;;;1.67;0.98;;;;;;;;;;5127076;27;20147;-82
2024/01/04 01:56:40;;;;;;;1.33;0.65;;;;;;;;;;5124955;27;20039;-83
2024/01/04 01:59:06;;;;;;;1.52;0.20;;;;;;;;;;5125063;27;20046;-82
2024/01/04 02:01:32;;;;;;;0.65;0.40;;;;;;;;;;5123928;27;20170;-82
2024/01/04 02:03:58;;;;;;;4.30;1.23;;;;;;;;;;5125868;27;20078;-82
2024/01/04 02:06:24;;;;;;;3.83;0.80;;;;;;;;;;5123674;27;20450;-82
2024/01/04 02:08:50;;;;;;;0.15;0.10;;;;;;;;;;5126915;27;20054;-83
2024/01/04 02:11:16;;;;;;;1.02;0.50;;;;;;;;;;5121463;27;20047;-83
2024/01/04 02:13:43;;;;;;;0.30;0.30;;;;;;;;;;5123766;27;20035;-83
2024/01/04 02:16:09;;;;;;;0.95;0.43;;;;;;;;;;5132041;27;20444;-83
2024/01/04 02:18:35;;;;;;;8.02;0.60;;;;;;;;;;5121288;27;20100;-83
2024/01/04 02:21:01;;;;;;;1.20;0.40;;;;;;;;;;5110220;27;20038;-83
2024/01/04 02:23:30;;;;;;;0.15;0.13;;;;;;;;;;5125825;27;20085;-83
2024/01/04 02:25:57;;;;;;;1.15;0.45;;;;;;;;;;5125391;27;20103;-83
2024/01/04 02:28:23;;;;;;;2.00;0.35;;;;;;;;;;5134833;27;20169;-83
2024/01/04 02:30:51;;;;;;;2.13;0.68;;;;;;;;;;5127025;27;20039;-83
2024/01/04 02:33:17;;;;;;;2.42;0.68;;;;;;;;;;5130021;27;20148;-82
2024/01/04 02:35:43;;;;;;;2.58;0.50;;;;;;;;;;5121986;27;20053;-83
2024/01/04 02:38:09;;;;;;;0.80;0.60;;;;;;;;;;5128403;27;20169;-82
2024/01/04 02:40:35;;;;;;;3.60;0.85;;;;;;;;;;5106750;27;20118;-82
2024/01/04 02:43:01;;;;;;;0.70;0.43;;;;;;;;;;5122598;27;20039;-83
2024/01/04 02:45:27;;;;;;;0.57;0.30;;;;;;;;;;5128602;27;20122;-83
2024/01/04 02:47:53;;;;;;;3.28;0.30;;;;;;;;;;5125161;27;20036;-83
2024/01/04 02:50:19;;;;;;;3.10;0.50;;;;;;;;;;5126532;27;20077;-83
2024/01/04 02:52:45;;;;;;;1.27;0.73;;;;;;;;;;5128315;27;20200;-82
2024/01/04 02:55:11;;;;;;;2.00;0.30;;;;;;;;;;5122200;27;20052;-83
2024/01/04 02:57:37;;;;;;;1.98;0.68;;;;;;;;;;5122474;27;20039;-83
2024/01/04 03:00:04;;;;;;;1.73;0.35;;;;;;;;;;5126649;27;20031;-83
2024/01/04 03:02:31;;;;;;;1.20;0.40;;;;;;;;;;5119249;27;20050;-83
2024/01/04 03:04:57;;;;;;;0.55;0.35;;;;;;;;;;5124679;27;20039;-85
2024/01/04 03:07:25;;;;;;;0.47;0.30;;;;;;;;;;5120804;27;20487;-83
2024/01/04 03:09:51;;;;;;;0.75;0.40;;;;;;;;;;5121748;27;20039;-83
2024/01/04 03:12:17;;;;;;;1.15;0.85;;;;;;;;;;5121193;27;20067;-83
2024/01/04 03:14:43;;;;;;;1.65;0.40;;;;;;;;;;5103211;27;20451;-81
2024/01/04 03:17:09;;;;;;;1.98;1.00;;;;;;;;;;5127638;27;20039;-82
2024/01/04 03:19:35;;;;;;;1.90;0.40;;;;;;;;;;5121297;27;20027;-82
2024/01/04 03:22:01;;;;;;;1.17;0.30;;;;;;;;;;5132707;27;20031;-83
2024/01/04 03:24:27;;;;;;;3.25;0.75;;;;;;;;;;5122642;27;20108;-82
2024/01/04 03:26:53;;;;;;;3.10;0.52;;;;;;;;;;5121164;27;20050;-82
2024/01/04 03:29:19;;;;;;;1.05;0.43;;;;;;;;;;5126016;27;20085;-83
2024/01/04 03:31:45;;;;;;;1.50;0.45;;;;;;;;;;5123187;27;20042;-82
2024/01/04 03:34:11;;;;;;;3.03;0.90;;;;;;;;;;5123072;27;20035;-83
2024/01/04 03:36:37;;;;;;;5.15;0.85;;;;;;;;;;5130353;27;20039;-83
2024/01/04 03:39:03;;;;;;;1.55;0.50;;;;;;;;;;5126247;27;20480;-83
2024/01/04 03:41:29;;;;;;;4.43;0.52;;;;;;;;;;5125980;27;20037;-83
2024/01/04 03:43:55;;;;;;;0.20;0.10;;;;;;;;;;5120810;27;20032;-83
2024/01/04 03:46:22;;;;;;;1.33;0.20;;;;;;;;;;5121836;27;20472;-83
2024/01/04 03:48:48;;;;;;;0.73;0.40;;;;;;;;;;5122664;27;20046;-83
2024/01/04 03:51:14;;;;;;;0.65;0.30;;;;;;;;;;5120610;27;20035;-83
2024/01/04 03:53:40;;;;;;;0.63;0.10;;;;;;;;;;5123274;27;20080;-82
2024/01/04 03:56:06;;;;;;;1.15;0.45;;;;;;;;;;5125995;27;20100;-83
2024/01/04 03:58:32;;;;;;;1.40;0.30;;;;;;;;;;5124900;27;20039;-82
2024/01/04 04:00:58;;;;;;;2.08;0.60;;;;;;;;;;5122012;27;20062;-82
2024/01/04 04:03:24;;;;;;;0.40;0.20;;;;;;;;;;5120996;27;20074;-83
2024/01/04 04:05:51;;;;;;;2.17;0.40;;;;;;;;;;5126598;27;20031;-83
2024/01/04 04:08:17;;;;;;;0.88;0.40;;;;;;;;;;5130592;27;20053;-82
2024/01/04 04:10:44;;;;;;;1.83;1.75;;;;;;;;;;5113177;27;20043;-83
2024/01/04 04:13:10;;;;;;;2.88;0.70;;;;;;;;;;5120984;27;20040;-83
2024/01/04 04:15:36;;;;;;;0.28;0.20;;;;;;;;;;5125278;27;20043;-83
2024/01/04 04:18:02;;;;;;;1.00;0.10;;;;;;;;;;5126371;27;20088;-82
2024/01/04 04:20:28;;;;;;;2.80;0.30;;;;;;;;;;5124724;27;20395;-82
2024/01/04 04:22:55;;;;;;;3.15;0.35;;;;;;;;;;5122562;27;20067;-82
2024/01/04 04:25:21;;;;;;;1.45;0.38;;;;;;;;;;5126727;27;20421;-82
2024/01/04 04:27:47;;;;;;;2.17;0.10;;;;;;;;;;5128830;27;20035;-83
2024/01/04 04:30:13;;;;;;;1.23;0.20;;;;;;;;;;5123881;27;20035;-82
2024/01/04 04:32:39;;;;;;;0.85;0.15;;;;;;;;;;5124847;27;20036;-83
2024/01/04 04:35:05;;;;;;;0.65;0.10;;;;;;;;;;5105189;27;20096;-83
2024/01/04 04:37:31;;;;;;;4.68;1.25;;;;;;;;;;5123111;27;20526;-82
2024/01/04 04:39:57;;;;;;;2.10;0.38;;;;;;;;;;5121343;27;20042;-83
2024/01/04 04:42:23;;;;;;;0.82;0.22;;;;;;;;;;5126369;27;20118;-83
2024/01/04 04:44:49;;;;;;;0.68;0.20;;;;;;;;;;5124587;27;20031;-83
2024/01/04 04:47:15;;;;;;;1.13;0.38;;;;;;;;;;5141455;27;20039;-82
2024/01/04 04:49:41;;;;;;;2.63;0.40;;;;;;;;;;5137996;27;20069;-83
2024/01/04 04:52:07;;;;;;;1.73;0.55;;;;;;;;;;5137595;27;20046;-82
2024/01/04 04:54:33;;;;;;;0.35;0.30;;;;;;;;;;5139806;27;20146;-83
2024/01/04 04:57:00;;;;;;;1.27;0.20;;;;;;;;;;5138869;27;20108;-82
2024/01/04 04:59:26;;;;;;;1.33;0.20;;;;;;;;;;5124129;27;20043;-83
2024/01/04 05:01:52;;;;;;;2.10;0.30;;;;;;;;;;5101370;27;20053;-83
2024/01/04 05:04:18;;;;;;;1.42;0.57;;;;;;;;;;5121696;27;20040;-82
2024/01/04 05:06:44;;;;;;;0.47;0.20;;;;;;;;;;5119903;27;20696;-83
2024/01/04 05:09:11;;;;;;;2.55;0.60;;;;;;;;;;5120495;27;20039;-82
2024/01/04 05:11:37;;;;;;;2.05;0.30;;;;;;;;;;5121292;27;20035;-83
2024/01/04 05:14:02;;;;;;;0.35;0.20;;;;;;;;;;5121479;27;20050;-83
2024/01/04 05:16:29;;;;;;;0.35;0.35;;;;;;;;;;5106831;27;20070;-84
2024/01/04 05:18:55;;;;;;;2.05;0.40;;;;;;;;;;5124880;27;20390;-82
2024/01/04 05:21:21;;;;;;;1.20;0.22;;;;;;;;;;5124953;27;20156;-83
2024/01/04 05:23:47;;;;;;;2.05;0.30;;;;;;;;;;5125093;27;20408;-83
2024/01/04 05:26:21;;;;;;;0.88;0.30;;;;;;;;;;5118213;27;20035;-83
2024/01/04 05:28:47;;;;;;;1.25;0.30;;;;;;;;;;5121000;28;20494;-83
2024/01/04 05:31:15;;;;;;;1.80;0.30;;;;;;;;;;5124954;28;20129;-83
2024/01/04 05:33:41;;;;;;;0.30;0.25;;;;;;;;;;5123791;28;20043;-82
2024/01/04 05:36:07;;;;;;;0.20;0.20;;;;;;;;;;5124562;28;20084;-83
2024/01/04 05:38:33;;;;;;;2.42;0.52;;;;;;;;;;5107065;28;20122;-82
2024/01/04 05:40:59;;;;;;;0.38;0.20;;;;;;;;;;5116804;28;20035;-82
2024/01/04 05:43:27;;;;;;;1.20;0.15;;;;;;;;;;5122980;28;20042;-83
2024/01/04 05:45:53;;;;;;;0.47;0.20;;;;;;;;;;5131391;28;20158;-82
2024/01/04 05:48:19;;;;;;;0.90;0.30;;;;;;;;;;5121683;28;20124;-83
2024/01/04 05:50:45;;;;;;;3.10;0.25;;;;;;;;;;5122990;28;20494;-83
2024/01/04 05:53:11;;;;;;;0.28;0.20;;;;;;;;;;5124394;27;20049;-83
2024/01/04 05:55:37;;;;;;;0.28;0.20;;;;;;;;;;5119351;28;20391;-83
2024/01/04 05:58:03;;;;;;;0.52;0.30;;;;;;;;;;5122899;27;20097;-83
2024/01/04 06:00:29;;;;;;;2.08;0.68;;;;;;;;;;5120429;28;20043;-83
2024/01/04 06:02:55;;;;;;;1.75;0.30;;;;;;;;;;5122080;27;20487;-82
2024/01/04 06:05:21;;;;;;;0.45;0.20;;;;;;;;;;5125600;27;20035;-83
2024/01/04 06:07:47;;;;;;;0.68;0.40;;;;;;;;;;5120393;28;20479;-83
2024/01/04 06:10:13;;;;;;;0.57;0.32;;;;;;;;;;5122274;28;20551;-82
2024/01/04 06:12:39;;;;;;;3.90;0.50;;;;;;;;;;5120665;28;20123;-83
2024/01/04 06:15:05;;;;;;;1.10;0.32;;;;;;;;;;5119718;28;20135;-83
2024/01/04 06:17:31;;;;;;;2.50;0.52;;;;;;;;;;5121204;28;20039;-83
2024/01/04 06:19:57;;;;;;;1.45;0.57;;;;;;;;;;5121274;28;20054;-85
2024/01/04 06:22:23;;;;;;;0.80;0.55;;;;;;;;;;5106459;28;20411;-84
2024/01/04 06:24:49;;;;;;;0.60;0.32;;;;;;;;;;5113478;28;20039;-86
2024/01/04 06:27:15;;;;;;;1.45;0.40;;;;;;;;;;5100659;28;20073;-87
2024/01/04 06:29:43;;;;;;;0.40;0.30;;;;;;;;;;5121525;28;20398;-85
2024/01/04 06:32:09;;;;;;;1.80;0.30;;;;;;;;;;5126055;27;20044;-84
2024/01/04 06:34:36;;;;;;;2.90;0.40;;;;;;;;;;5114750;28;20043;-85
2024/01/04 06:37:02;;;;;;;0.85;0.30;;;;;;;;;;5117680;27;20080;-86
2024/01/04 06:39:28;;;;;;;1.35;0.45;;;;;;;;;;5119353;27;20047;-85
2024/01/04 06:41:54;;;;;;;1.20;0.20;;;;;;;;;;5101658;27;20035;-86
2024/01/04 06:44:20;;;;;;;1.15;0.22;;;;;;;;;;5123463;27;20430;-85
2024/01/04 06:46:46;;;;;;;1.17;0.30;;;;;;;;;;5124114;27;20035;-84
2024/01/04 06:49:12;;;;;;;0.65;0.30;;;;;;;;;;5122505;27;20042;-84
2024/01/04 06:51:38;;;;;;;1.23;0.30;;;;;;;;;;5120983;27;20039;-84
2024/01/04 06:54:04;;;;;;;0.52;0.38;;;;;;;;;;5122463;27;20381;-84
2024/01/04 06:56:30;;;;;;;0.35;0.22;;;;;;;;;;5127523;27;20035;-84
2024/01/04 06:58:56;;;;;;;0.82;0.17;;;;;;;;;;5102695;27;20031;-84
2024/01/04 07:01:22;;;;;;;0.98;0.60;;;;;;;;;;5125086;27;20040;-83
2024/01/04 07:03:49;;;;;;;0.05;0.05;;;;;;;;;;5126086;27;20039;-85
2024/01/04 07:06:14;;;;;;;0.17;0.10;;;;;;;;;;5123708;27;20079;-84
2024/01/04 07:08:40;;;;;;;0.75;0.50;;;;;;;;;;5119497;27;20078;-85
2024/01/04 07:11:06;;;;;;;0.30;0.20;;;;;;;;;;5122032;27;20403;-84
2024/01/04 07:13:35;;;;;;;1.73;0.20;;;;;;;;;;5122254;27;20051;-85
2024/01/04 07:16:05;;;;;;;0.52;0.28;;;;;;;;;;5123632;27;20038;-83
2024/01/04 07:18:31;;;;;;;0.77;0.20;;;;;;;;;;5123906;27;20039;-84
2024/01/04 07:20:57;;;;;;;0.50;0.20;;;;;;;;;;5114837;28;20063;-83
2024/01/04 07:23:23;;;;;;;1.85;0.28;;;;;;;;;;5126273;27;20526;-84
2024/01/04 07:25:49;;;;;;;0.30;0.20;;;;;;;;;;5115356;27;20047;-83
2024/01/04 07:28:16;;;;;;;1.63;0.30;;;;;;;;;;5121587;27;20096;-83
2024/01/04 07:30:42;;;;;;;0.85;0.38;;;;;;;;;;5120344;27;20526;-84
2024/01/04 07:33:08;;;;;;;1.75;0.40;;;;;;;;;;5119085;27;20031;-84
2024/01/04 07:35:34;;;;;;;1.08;0.57;;;;;;;;;;5122469;27;20043;-83
2024/01/04 07:38:00;;;;;;;1.50;0.40;;;;;;;;;;5125167;27;20035;-83
2024/01/04 07:40:26;;;;;;;0.38;0.25;;;;;;;;;;5125605;27;20035;-83
2024/01/04 07:42:52;;;;;;;0.73;0.30;;;;;;;;;;5118241;27;20036;-83
2024/01/04 07:45:18;;;;;;;1.83;0.90;;;;;;;;;;5125463;27;20066;-83
2024/01/04 07:47:44;;;;;;;0.85;0.22;;;;;;;;;;5121800;27;20047;-83
2024/01/04 07:50:11;;;;;;;1.52;0.20;;;;;;;;;;5122296;27;20035;-83
2024/01/04 07:52:38;;;;;;;2.05;0.50;;;;;;;;;;5125852;27;21183;-84
2024/01/04 07:55:05;;;;;;;2.28;0.60;;;;;;;;;;5122275;27;20045;-84
2024/01/04 07:57:31;;;;;;;0.65;0.30;;;;;;;;;;5115405;27;20387;-83
2024/01/04 07:59:57;;;;;;;0.73;0.50;;;;;;;;;;5129546;27;20475;-83
2024/01/04 08:02:25;;;;;;;1.65;0.40;;;;;;;;;;5130515;27;20050;-81
2024/01/04 08:04:53;;;;;;;0.85;0.30;;;;;;;;;;5130478;27;20114;-83
2024/01/04 08:07:19;;;;;;;1.90;0.30;;;;;;;;;;5129413;27;20047;-83
2024/01/04 08:09:45;;;;;;;1.85;0.73;;;;;;;;;;5132393;27;20039;-83
2024/01/04 08:12:12;;;;;;;0.30;0.17;;;;;;;;;;5133182;27;20543;-84
2024/01/04 08:14:38;;;;;;;1.33;0.32;;;;;;;;;;5134226;27;20058;-83
2024/01/04 08:17:05;;;;;;;1.85;0.50;;;;;;;;;;5128056;27;20100;-83
2024/01/04 08:19:31;;;;;;;2.08;0.30;;;;;;;;;;5138309;27;20100;-83
2024/01/04 08:21:57;;;;;;;2.00;0.50;;;;;;;;;;5139109;27;20107;-83
2024/01/04 08:24:23;;;;;;;1.88;0.32;;;;;;;;;;5139289;27;20562;-84
2024/01/04 08:26:50;;;;;;;3.45;0.65;;;;;;;;;;5142924;27;20058;-84
2024/01/04 08:29:16;;;;;;;0.60;0.55;;;;;;;;;;5106464;28;20044;-85
2024/01/04 08:31:43;;;;;;;0.93;0.73;;;;;;;;;;5122465;27;20052;-84
2024/01/04 08:34:09;;;;;;;0.82;0.40;;;;;;;;;;5125090;27;20087;-84
2024/01/04 08:36:36;;;;;;;3.75;0.52;;;;;;;;;;5125170;27;20050;-84
2024/01/04 08:39:03;;;;;;;1.83;0.60;;;;;;;;;;5121925;27;20099;-85
2024/01/04 08:41:29;;;;;;;0.98;0.38;;;;;;;;;;5119618;27;20040;-84
2024/01/04 08:43:56;;;;;;;0.80;0.30;;;;;;;;;;5126779;27;20043;-84
2024/01/04 08:46:22;;;;;;;1.20;0.40;;;;;;;;;;5124333;27;20039;-85
2024/01/04 08:48:48;;;;;;;2.20;0.40;;;;;;;;;;5114137;27;20078;-85
2024/01/04 08:51:14;;;;;;;0.95;0.40;;;;;;;;;;5103181;27;20066;-85
2024/01/04 08:53:41;;;;;;;1.52;0.40;;;;;;;;;;5116789;27;20046;-84
2024/01/04 08:56:13;;;;;;;2.42;0.50;;;;;;;;;;5119360;27;20403;-84
2024/01/04 08:58:39;;;;;;;0.88;0.32;;;;;;;;;;5126368;27;20066;-84
2024/01/04 09:01:05;;;;;;;1.15;0.40;;;;;;;;;;5132304;27;20046;-85
2024/01/04 09:03:32;;;;;;;1.60;0.40;;;;;;;;;;5119205;27;20040;-84
2024/01/04 09:05:58;;;;;;;0.85;0.22;;;;;;;;;;5124904;27;20088;-85
2024/01/04 09:08:24;;;;;;;0.88;0.40;;;;;;;;;;5117212;27;20126;-86
2024/01/04 09:10:50;;;;;;;0.63;0.13;;;;;;;;;;5104107;27;20127;-85
2024/01/04 09:13:17;;;;;;;0.30;0.28;;;;;;;;;;5096953;27;20129;-87
2024/01/04 09:15:43;;;;;;;3.25;0.85;;;;;;;;;;5120059;27;20031;-84
2024/01/04 09:18:09;;;;;;;1.05;0.30;;;;;;;;;;5117672;27;20096;-85
2024/01/04 09:20:35;;;;;;;1.05;0.32;;;;;;;;;;5103914;28;20039;-85
2024/01/04 09:23:01;;;;;;;2.05;0.38;;;;;;;;;;5121179;27;20108;-85
2024/01/04 09:25:27;;;;;;;1.63;0.20;;;;;;;;;;5122590;27;20399;-85
2024/01/04 09:27:54;;;;;;;2.13;0.20;;;;;;;;;;5120514;28;20070;-85
2024/01/04 09:30:20;;;;;;;2.72;0.10;;;;;;;;;;5101865;28;20077;-86
2024/01/04 09:32:46;;;;;;;0.82;0.28;;;;;;;;;;5124148;28;20048;-86
2024/01/04 09:35:12;;;;;;;0.88;0.22;;;;;;;;;;5102937;28;20051;-85
2024/01/04 09:37:38;;;;;;;1.75;0.20;;;;;;;;;;5120060;28;20039;-85
2024/01/04 09:40:04;;;;;;;0.30;0.20;;;;;;;;;;5113274;28;20032;-85
2024/01/04 09:42:32;;;;;;;1.80;0.50;;;;;;;;;;5104661;28;20028;-86
2024/01/04 09:45:01;;;;;;;0.73;0.40;;;;;;;;;;5120393;28;20524;-85
2024/01/04 09:47:28;;;;;;;0.90;0.32;;;;;;;;;;5121955;28;20074;-85
2024/01/04 09:49:54;;;;;;;3.33;0.30;;;;;;;;;;5122960;28;20126;-85
2024/01/04 09:52:22;;;;;;;2.75;0.32;;;;;;;;;;5126777;28;20050;-85
2024/01/04 09:54:48;;;;;;;1.40;0.30;;;;;;;;;;5122713;28;20074;-86
2024/01/04 09:57:15;;;;;;;1.38;0.40;;;;;;;;;;5123618;28;20095;-85
2024/01/04 09:59:41;;;;;;;0.77;0.40;;;;;;;;;;5118458;28;20035;-85
2024/01/04 10:02:09;;;;;;;2.40;0.40;;;;;;;;;;5126222;28;20035;-85
2024/01/04 10:04:35;;;;;;;1.00;0.60;;;;;;;;;;5104297;28;20046;-85
2024/01/04 10:07:03;;;;;;;0.88;0.40;;;;;;;;;;5125744;27;20151;-85
2024/01/04 10:09:36;;;;;;;1.13;0.30;;;;;;;;;;5117979;27;20043;-86
2024/01/04 10:12:10;;;;;;;1.10;0.15;;;;;;;;;;5107092;27;20031;-85
2024/01/04 10:14:36;;;;;;;0.75;0.38;;;;;;;;;;5124649;27;20044;-86
2024/01/04 10:17:03;;;;;;;2.22;0.20;;;;;;;;;;5127015;27;20033;-86
2024/01/04 10:19:30;;;;;;;2.08;0.35;;;;;;;;;;5119212;27;20035;-85
2024/01/04 10:22:01;;;;;;;0.55;0.20;;;;;;;;;;5124956;27;20495;-86
2024/01/04 10:24:28;;;;;;;1.55;0.20;;;;;;;;;;5123778;27;20043;-86
2024/01/04 10:26:58;;;;;;;6.68;0.85;;;;;;;;;;5106093;27;20107;-85
2024/01/04 10:29:25;;;;;;;0.50;0.20;;;;;;;;;;5125636;27;20038;-85
2024/01/04 10:31:58;;;;;;;2.97;0.73;;;;;;;;;;5126808;27;20328;-85
2024/01/04 10:34:25;;;;;;;2.10;0.60;;;;;;;;;;5121273;27;20035;-86
2024/01/04 10:36:51;;;;;;;3.67;0.70;;;;;;;;;;5106495;27;20050;-85
2024/01/04 10:39:20;;;;;;;1.05;0.47;;;;;;;;;;5127439;27;20063;-85
2024/01/04 10:41:56;;;;;;;0.63;0.63;;;;;;;;;;5121483;27;20506;-85
2024/01/04 10:44:22;;;;;;;;;;;;;;;;;;5126089;27;20410;-85
2024/01/04 10:46:54;;;;;;;0.22;0.22;;;;;;;;;;5105639;27;19919;-85
2024/01/04 10:49:20;;;;;;;0.60;0.60;;;;;;;;;;5122650;27;20044;-85
2024/01/04 10:51:48;;;;;;;0.52;0.20;;;;;;;;;;5122091;27;20043;-85
2024/01/04 10:54:14;;;;;;;1.33;0.50;;;;;;;;;;5125078;27;20044;-85
2024/01/04 10:56:41;;;;;;;4.65;0.55;;;;;;;;;;5123977;27;20395;-85
2024/01/04 10:59:07;;;;;;;0.30;0.30;;;;;;;;;;5125149;27;20087;-85
2024/01/04 11:01:34;;;;;;;0.98;0.30;;;;;;;;;;5126283;27;20039;-85
2024/01/04 11:04:00;;;;;;;0.52;0.20;;;;;;;;;;5129327;27;20043;-85
2024/01/04 11:06:26;;;;;;;0.35;0.28;;;;;;;;;;5123618;27;20043;-85
2024/01/04 11:08:57;;;;;;;1.45;0.30;;;;;;;;;;5122422;27;20054;-85
2024/01/04 11:11:27;;;;;;;0.32;0.20;;;;;;;;;;5122963;27;20043;-85
2024/01/04 11:13:53;;;;;;;1.23;0.47;;;;;;;;;;5125439;27;20059;-85
2024/01/04 11:16:45;;;;;;;0.43;0.28;;;;;;;;;;5124098;27;20552;-85
2024/01/04 11:19:17;;;;;;;2.35;0.30;;;;;;;;;;5121900;27;20039;-85
2024/01/04 11:22:02;;;;;;;1.88;0.30;;;;;;;;;;5121179;27;20031;-85
2024/01/04 11:24:46;;;;;;;1.92;0.40;;;;;;;;;;5121887;27;20047;-85
2024/01/04 11:27:17;;;;;;;1.10;0.30;;;;;;;;;;5123152;27;20035;-85
2024/01/04 11:29:43;;;;;;;0.45;0.40;;;;;;;;;;5123322;27;20039;-85
2024/01/04 11:32:10;;;;;;;0.20;0.10;;;;;;;;;;5121169;27;20031;-85
2024/01/04 11:34:37;;;;;;;2.95;0.90;;;;;;;;;;5122887;27;20119;-85
2024/01/04 11:37:12;;;;;;;0.75;0.30;;;;;;;;;;5122279;27;20077;-85
2024/01/04 11:40:10;;;;;;;2.40;0.40;;;;;;;;;;5120256;27;20032;-85
2024/01/04 11:42:41;;;;;;;0.55;0.35;;;;;;;;;;5087738;27;20534;-85
2024/01/04 11:45:17;;;;;;;1.77;0.40;;;;;;;;;;5126312;27;20043;-85
2024/01/04 11:47:47;;;;;;;1.20;0.32;;;;;;;;;;5121990;27;20046;-85
2024/01/04 11:50:16;;;;;;;1.42;0.50;;;;;;;;;;5108328;27;20047;-84
2024/01/04 11:52:43;;;;;;;1.27;0.47;;;;;;;;;;5128953;27;20514;-85
2024/01/04 11:55:09;;;;;;;1.33;0.20;;;;;;;;;;5121145;27;20031;-85
2024/01/04 11:57:35;;;;;;;0.75;0.30;;;;;;;;;;5127504;27;20038;-86
2024/01/04 12:00:12;;;;;;;0.65;0.40;;;;;;;;;;5138571;27;20027;-85
2024/01/04 12:02:38;;;;;;;1.15;0.40;;;;;;;;;;5142006;27;20043;-85
2024/01/04 12:05:05;;;;;;;0.55;0.30;;;;;;;;;;5140536;27;20039;-85
2024/01/04 12:07:32;;;;;;;1.73;0.20;;;;;;;;;;5147306;27;20092;-87
2024/01/04 12:09:59;;;;;;;1.17;0.30;;;;;;;;;;5142518;27;20400;-86
2024/01/04 12:12:25;;;;;;;0.70;0.30;;;;;;;;;;5123716;27;20039;-86
2024/01/04 12:14:52;;;;;;;0.30;0.28;;;;;;;;;;5104613;27;20031;-86
2024/01/04 12:17:18;;;;;;;0.30;0.28;;;;;;;;;;5123784;27;20502;-87
2024/01/04 12:19:44;;;;;;;1.55;0.40;;;;;;;;;;5122221;27;20367;-86
2024/01/04 12:22:10;;;;;;;0.50;0.30;;;;;;;;;;5104773;27;20089;-85
2024/01/04 12:24:38;;;;;;;1.55;0.63;;;;;;;;;;5118171;27;20101;-84
2024/01/04 12:27:05;;;;;;;0.98;0.40;;;;;;;;;;5125394;27;20035;-86
2024/01/04 12:29:31;;;;;;;1.38;0.40;;;;;;;;;;5116948;27;20039;-86
2024/01/04 12:32:00;;;;;;;0.35;0.35;;;;;;;;;;5106175;27;20039;-86
2024/01/04 12:34:26;;;;;;;0.20;0.20;;;;;;;;;;5110019;27;20117;-88
2024/01/04 12:36:52;;;;;;;0.93;0.22;;;;;;;;;;5120138;27;20039;-87
2024/01/04 12:39:18;;;;;;;1.40;0.20;;;;;;;;;;5118385;27;20060;-87
2024/01/04 12:41:44;;;;;;;1.00;0.73;;;;;;;;;;5110419;27;20042;-88
2024/01/04 12:44:11;;;;;;;1.85;0.40;;;;;;;;;;5105100;27;21557;-88
2024/01/04 12:46:39;;;;;;;2.05;0.40;;;;;;;;;;5120813;27;20388;-88
2024/01/04 12:49:09;;;;;;;0.80;0.30;;;;;;;;;;5105144;27;20035;-87
2024/01/04 12:51:38;;;;;;;1.13;0.30;;;;;;;;;;5108165;27;20043;-88
2024/01/04 12:54:04;;;;;;;2.05;0.60;;;;;;;;;;5120580;27;20046;-87
2024/01/04 12:56:31;;;;;;;2.33;0.82;;;;;;;;;;5118460;27;20039;-87
2024/01/04 12:59:01;;;;;;;1.45;0.50;;;;;;;;;;5104356;27;20031;-87
2024/01/04 13:01:27;;;;;;;1.17;0.30;;;;;;;;;;5118203;27;20046;-87
2024/01/04 13:03:53;;;;;;;0.98;0.40;;;;;;;;;;5102816;28;20061;-87
2024/01/04 13:06:20;;;;;;;0.45;0.40;;;;;;;;;;5125746;27;20491;-87
2024/01/04 13:08:46;;;;;;;0.93;0.30;;;;;;;;;;5104637;27;20042;-87
2024/01/04 13:11:12;;;;;;;1.25;0.40;;;;;;;;;;5099241;28;20039;-88
2024/01/04 13:13:39;;;;;;;0.20;0.10;;;;;;;;;;5101872;28;20061;-89
2024/01/04 13:16:06;;;;;;;0.60;0.32;;;;;;;;;;5103498;27;20035;-87
2024/01/04 13:18:32;;;;;;;0.85;0.20;;;;;;;;;;5119741;27;20116;-88
2024/01/04 13:20:58;;;;;;;0.60;0.40;;;;;;;;;;5099431;28;20039;-88
2024/01/04 13:23:24;;;;;;;0.45;0.30;;;;;;;;;;5107248;27;20056;-88
2024/01/04 13:25:52;;;;;;;2.00;0.60;;;;;;;;;;5118025;27;20035;-88
2024/01/04 13:28:18;;;;;;;0.55;0.30;;;;;;;;;;5106146;28;20039;-88
2024/01/04 13:30:44;;;;;;;0.20;0.10;;;;;;;;;;5118305;28;20039;-88
2024/01/04 13:33:10;;;;;;;1.67;0.50;;;;;;;;;;5119491;28;20479;-87
2024/01/04 13:35:36;;;;;;;0.60;0.30;;;;;;;;;;5117750;28;20091;-87
2024/01/04 13:38:02;;;;;;;0.50;0.30;;;;;;;;;;5101569;28;20122;-87
2024/01/04 13:40:28;;;;;;;1.27;0.40;;;;;;;;;;5117872;28;20201;-87
2024/01/04 13:42:54;;;;;;;1.98;0.20;;;;;;;;;;5122959;27;20503;-87
2024/01/04 13:45:21;;;;;;;0.80;0.50;;;;;;;;;;5124863;27;20041;-87
2024/01/04 13:47:49;;;;;;;0.82;0.30;;;;;;;;;;5109458;27;20436;-87
2024/01/04 13:50:15;;;;;;;0.85;0.20;;;;;;;;;;5126548;27;20100;-88
2024/01/04 13:52:41;;;;;;;0.63;0.20;;;;;;;;;;5108903;27;20035;-87
2024/01/04 13:55:07;;;;;;;0.60;0.20;;;;;;;;;;5125059;27;20047;-88
2024/01/04 13:57:33;;;;;;;0.82;0.30;;;;;;;;;;5110339;27;20479;-86
2024/01/04 13:59:59;;;;;;;0.40;0.30;;;;;;;;;;5125203;27;20027;-86
2024/01/04 14:02:26;;;;;;;0.10;0.10;;;;;;;;;;5112653;27;20049;-85
2024/01/04 14:04:52;;;;;;;1.27;0.20;;;;;;;;;;5105289;27;20039;-87
2024/01/04 14:07:18;;;;;;;0.75;0.20;;;;;;;;;;5105053;27;20046;-89
2024/01/04 14:09:44;;;;;;;1.17;0.30;;;;;;;;;;5125447;27;20060;-87
2024/01/04 14:12:11;;;;;;;1.30;0.40;;;;;;;;;;5112285;27;20467;-89
2024/01/04 14:14:38;;;;;;;0.65;0.13;;;;;;;;;;5110672;27;20035;-87
2024/01/04 14:17:05;;;;;;;0.52;0.43;;;;;;;;;;5124928;27;20042;-86
2024/01/04 14:19:31;;;;;;;1.20;0.30;;;;;;;;;;5121364;27;20042;-88
2024/01/04 14:21:57;;;;;;;0.57;0.30;;;;;;;;;;5102497;27;20122;-86
2024/01/04 14:24:23;;;;;;;1.63;0.28;;;;;;;;;;5108163;27;20251;-88
2024/01/04 14:26:50;;;;;;;0.70;0.20;;;;;;;;;;5106799;27;20031;-86
2024/01/04 14:29:16;;;;;;;0.85;0.25;;;;;;;;;;5108785;27;20111;-88
2024/01/04 14:31:42;;;;;;;3.17;0.30;;;;;;;;;;5110119;27;20509;-89
2024/01/04 14:34:08;;;;;;;0.68;0.20;;;;;;;;;;5108694;27;20069;-89
2024/01/04 14:36:34;;;;;;;0.28;0.28;;;;;;;;;;5124230;27;20027;-87
2024/01/04 14:39:01;;;;;;;0.45;0.20;;;;;;;;;;5122795;27;20447;-89
2024/01/04 14:41:27;;;;;;;0.38;0.38;;;;;;;;;;5120760;27;20088;-89